createdAt,value
2019-03-24T00:00:18.817Z,4.00
2019-03-24T00:01:18.816Z,4.00
2019-03-24T00:02:18.774Z,4.00
2019-03-24T00:03:18.790Z,4.00
2019-03-24T00:04:18.767Z,4.00
2019-03-24T00:05:18.802Z,4.00
2019-03-24T00:06:18.740Z,4.00
2019-03-24T00:07:18.739Z,4.00
2019-03-24T00:08:18.747Z,4.00
2019-03-24T00:09:18.744Z,4.00
2019-03-24T00:10:18.729Z,4.00
2019-03-24T00:11:18.718Z,4.00
2019-03-24T00:12:18.696Z,4.00
2019-03-24T00:13:18.689Z,4.00
2019-03-24T00:14:18.713Z,4.00
2019-03-24T00:15:26.112Z,4.00
2019-03-24T00:16:18.663Z,4.00
2019-03-24T00:17:18.672Z,4.00
2019-03-24T00:18:18.643Z,4.00
2019-03-24T00:19:18.657Z,4.00
2019-03-24T00:20:18.652Z,4.00
2019-03-24T00:21:18.637Z,4.00
2019-03-24T00:22:18.629Z,4.00
2019-03-24T00:23:18.614Z,4.00
2019-03-24T00:24:18.598Z,4.00
2019-03-24T00:25:18.591Z,4.00
2019-03-24T00:26:18.606Z,4.00
2019-03-24T00:27:18.570Z,4.00
2019-03-24T00:28:18.589Z,4.00
2019-03-24T00:29:18.581Z,4.00
2019-03-24T00:30:18.570Z,4.00
2019-03-24T00:31:18.540Z,4.00
2019-03-24T00:32:18.549Z,4.00
2019-03-24T00:33:18.540Z,4.00
2019-03-24T00:34:18.537Z,4.00
2019-03-24T00:35:18.522Z,4.00
2019-03-24T00:36:18.515Z,4.00
2019-03-24T00:37:18.557Z,4.00
2019-03-24T00:38:18.498Z,4.00
2019-03-24T00:39:18.494Z,4.00
2019-03-24T00:40:18.468Z,4.00
2019-03-24T00:41:18.470Z,4.00
2019-03-24T00:42:18.465Z,4.00
2019-03-24T00:43:18.455Z,4.00
2019-03-24T00:44:18.436Z,4.00
2019-03-24T00:45:18.425Z,4.00
2019-03-24T00:46:18.425Z,4.00
2019-03-24T00:47:18.425Z,4.00
2019-03-24T00:48:18.418Z,4.00
2019-03-24T00:49:18.394Z,4.00
2019-03-24T00:50:18.407Z,4.00
2019-03-24T00:51:18.392Z,4.00
2019-03-24T00:52:18.391Z,4.00
2019-03-24T00:53:18.371Z,4.00
2019-03-24T00:54:18.353Z,4.00
2019-03-24T00:55:18.344Z,4.00
2019-03-24T00:56:18.356Z,4.00
2019-03-24T00:57:18.320Z,4.00
2019-03-24T00:58:18.329Z,4.00
2019-03-24T00:59:18.319Z,4.00
2019-03-24T01:00:18.318Z,4.00
2019-03-24T01:01:18.350Z,4.00
2019-03-24T01:02:18.302Z,4.00
2019-03-24T01:03:18.293Z,4.00
2019-03-24T01:04:18.282Z,4.00
2019-03-24T01:05:18.317Z,4.00
2019-03-24T01:06:18.260Z,4.00
2019-03-24T01:07:18.257Z,4.00
2019-03-24T01:08:18.240Z,4.00
2019-03-24T01:09:18.251Z,4.00
2019-03-24T01:10:18.415Z,4.00
2019-03-24T01:11:18.227Z,4.00
2019-03-24T01:12:18.198Z,4.00
2019-03-24T01:13:18.204Z,4.00
2019-03-24T01:14:18.202Z,4.00
2019-03-24T01:15:18.193Z,4.00
2019-03-24T01:16:18.181Z,4.00
2019-03-24T01:17:18.170Z,4.00
2019-03-24T01:18:18.174Z,4.00
2019-03-24T01:19:18.152Z,4.00
2019-03-24T01:20:18.147Z,4.00
2019-03-24T01:21:18.140Z,4.00
2019-03-24T01:22:18.165Z,4.00
2019-03-24T01:23:18.128Z,4.00
2019-03-24T01:24:18.123Z,4.00
2019-03-24T01:25:18.105Z,4.00
2019-03-24T01:26:18.091Z,4.00
2019-03-24T01:27:18.072Z,4.00
2019-03-24T01:28:18.072Z,4.00
2019-03-24T01:29:18.071Z,4.00
2019-03-24T01:30:18.055Z,4.00
2019-03-24T01:31:18.056Z,4.00
2019-03-24T01:32:18.052Z,4.00
2019-03-24T01:33:18.041Z,4.00
2019-03-24T01:34:18.007Z,4.00
2019-03-24T01:35:18.028Z,4.00
2019-03-24T01:36:18.029Z,4.00
2019-03-24T01:37:17.999Z,4.00
2019-03-24T01:38:18.005Z,4.00
2019-03-24T01:39:18.020Z,4.00
2019-03-24T01:40:17.971Z,4.00
2019-03-24T01:41:17.966Z,4.00
2019-03-24T01:42:17.959Z,4.00
2019-03-24T01:43:17.992Z,4.00
2019-03-24T01:44:17.943Z,4.00
2019-03-24T01:45:17.981Z,4.00
2019-03-24T01:46:17.967Z,4.00
2019-03-24T01:47:17.916Z,4.00
2019-03-24T01:48:17.918Z,4.00
2019-03-24T01:49:17.914Z,4.00
2019-03-24T01:50:17.880Z,4.00
2019-03-24T01:51:17.894Z,4.00
2019-03-24T01:52:17.865Z,4.00
2019-03-24T01:53:17.865Z,4.00
2019-03-24T01:54:17.864Z,4.00
2019-03-24T01:55:17.862Z,4.00
2019-03-24T01:56:17.843Z,4.00
2019-03-24T01:57:17.840Z,4.00
2019-03-24T01:58:17.840Z,4.00
2019-03-24T01:59:17.802Z,4.00
2019-03-24T02:00:17.829Z,4.00
2019-03-24T02:01:17.796Z,4.00
2019-03-24T02:02:17.803Z,4.00
2019-03-24T02:03:17.801Z,4.00
2019-03-24T02:04:17.793Z,4.00
2019-03-24T02:05:17.778Z,4.00
2019-03-24T02:06:17.736Z,4.00
2019-03-24T02:07:17.758Z,4.00
2019-03-24T02:08:17.747Z,4.00
2019-03-24T02:09:17.736Z,4.00
2019-03-24T02:10:17.736Z,4.00
2019-03-24T02:11:17.730Z,4.00
2019-03-24T02:12:17.707Z,4.00
2019-03-24T02:13:17.702Z,4.00
2019-03-24T02:14:17.702Z,4.00
2019-03-24T02:15:17.687Z,4.00
2019-03-24T02:16:17.672Z,4.00
2019-03-24T02:17:17.644Z,4.00
2019-03-24T02:18:17.653Z,4.00
2019-03-24T02:19:17.644Z,4.00
2019-03-24T02:20:17.635Z,4.00
2019-03-24T02:21:17.630Z,4.00
2019-03-24T02:22:17.626Z,4.00
2019-03-24T02:23:17.616Z,4.00
2019-03-24T02:24:17.597Z,4.00
2019-03-24T02:25:17.582Z,4.00
2019-03-24T02:26:17.603Z,4.00
2019-03-24T02:27:17.627Z,4.00
2019-03-24T02:28:17.632Z,4.00
2019-03-24T02:29:17.566Z,4.00
2019-03-24T02:30:17.575Z,4.00
2019-03-24T02:31:17.551Z,4.00
2019-03-24T02:32:17.595Z,4.00
2019-03-24T02:33:17.550Z,4.00
2019-03-24T02:34:17.538Z,4.00
2019-03-24T02:35:17.530Z,4.00
2019-03-24T02:36:17.516Z,4.00
2019-03-24T02:37:17.484Z,4.00
2019-03-24T02:38:17.501Z,4.00
2019-03-24T02:39:17.489Z,4.00
2019-03-24T02:40:17.509Z,4.00
2019-03-24T02:41:17.459Z,4.00
2019-03-24T02:42:17.478Z,4.00
2019-03-24T02:43:17.446Z,4.00
2019-03-24T02:44:17.449Z,4.00
2019-03-24T02:45:17.438Z,4.00
2019-03-24T02:46:24.097Z,4.00
2019-03-24T02:47:17.425Z,4.00
2019-03-24T02:48:17.399Z,4.00
2019-03-24T02:49:17.405Z,4.00
2019-03-24T02:50:17.401Z,4.00
2019-03-24T02:51:17.393Z,4.00
2019-03-24T02:52:17.390Z,4.00
2019-03-24T02:53:17.363Z,4.00
2019-03-24T02:54:17.372Z,4.00
2019-03-24T02:55:17.406Z,4.00
2019-03-24T02:56:17.364Z,4.00
2019-03-24T02:57:17.341Z,4.00
2019-03-24T02:58:17.331Z,4.00
2019-03-24T02:59:17.336Z,4.00
2019-03-24T03:00:17.330Z,4.00
2019-03-24T03:01:17.301Z,4.00
2019-03-24T03:02:17.309Z,4.00
2019-03-24T03:03:17.296Z,4.00
2019-03-24T03:04:17.308Z,4.00
2019-03-24T03:05:17.271Z,4.00
2019-03-24T03:06:17.276Z,4.00
2019-03-24T03:07:17.257Z,4.00
2019-03-24T03:08:17.242Z,4.00
2019-03-24T03:09:17.244Z,4.00
2019-03-24T03:10:17.267Z,4.00
2019-03-24T03:11:17.216Z,4.00
2019-03-24T03:12:17.206Z,4.00
2019-03-24T03:13:17.216Z,4.00
2019-03-24T03:14:17.222Z,4.00
2019-03-24T03:15:17.204Z,4.00
2019-03-24T03:16:17.201Z,4.00
2019-03-24T03:17:17.183Z,4.00
2019-03-24T03:18:17.178Z,4.00
2019-03-24T03:19:17.166Z,4.00
2019-03-24T03:20:17.172Z,4.00
2019-03-24T03:21:17.147Z,4.00
2019-03-24T03:22:17.136Z,4.00
2019-03-24T03:23:17.130Z,4.00
2019-03-24T03:24:17.157Z,4.00
2019-03-24T03:25:17.120Z,4.00
2019-03-24T03:26:17.097Z,4.00
2019-03-24T03:27:17.077Z,4.00
2019-03-24T03:28:17.102Z,4.00
2019-03-24T03:29:17.088Z,4.00
2019-03-24T03:30:17.097Z,4.00
2019-03-24T03:31:17.085Z,4.00
2019-03-24T03:32:17.058Z,4.00
2019-03-24T03:33:17.058Z,4.00
2019-03-24T03:34:17.060Z,4.00
2019-03-24T03:35:17.028Z,4.00
2019-03-24T03:36:17.024Z,4.00
2019-03-24T03:37:17.032Z,4.00
2019-03-24T03:38:17.010Z,4.00
2019-03-24T03:39:17.017Z,4.00
2019-03-24T03:40:16.982Z,4.00
2019-03-24T03:41:17.022Z,4.00
2019-03-24T03:42:16.995Z,4.00
2019-03-24T03:43:16.971Z,4.00
2019-03-24T03:44:16.952Z,4.00
2019-03-24T03:45:16.949Z,4.00
2019-03-24T03:46:16.959Z,4.00
2019-03-24T03:47:16.977Z,4.00
2019-03-24T03:48:16.937Z,4.00
2019-03-24T03:49:16.914Z,4.00
2019-03-24T03:50:16.921Z,4.00
2019-03-24T03:51:16.916Z,4.00
2019-03-24T03:52:16.900Z,4.00
2019-03-24T03:53:16.899Z,4.00
2019-03-24T03:54:16.878Z,4.00
2019-03-24T03:55:16.872Z,4.00
2019-03-24T03:56:16.867Z,4.00
2019-03-24T03:57:16.865Z,4.00
2019-03-24T03:58:16.860Z,4.00
2019-03-24T03:59:16.829Z,4.00
2019-03-24T04:00:16.829Z,4.00
2019-03-24T04:01:16.833Z,4.00
2019-03-24T04:02:16.803Z,4.00
2019-03-24T04:03:16.829Z,4.00
2019-03-24T04:04:16.805Z,4.00
2019-03-24T04:05:16.799Z,4.00
2019-03-24T04:06:16.773Z,4.00
2019-03-24T04:07:16.779Z,4.00
2019-03-24T04:08:16.777Z,4.00
2019-03-24T04:09:16.770Z,4.00
2019-03-24T04:10:16.791Z,4.00
2019-03-24T04:11:16.754Z,4.00
2019-03-24T04:12:16.747Z,4.00
2019-03-24T04:13:16.731Z,4.00
2019-03-24T04:14:16.726Z,4.00
2019-03-24T04:15:16.694Z,4.00
2019-03-24T04:16:16.748Z,4.00
2019-03-24T04:17:16.709Z,4.00
2019-03-24T04:18:16.691Z,4.00
2019-03-24T04:19:16.674Z,4.00
2019-03-24T04:20:16.715Z,4.00
2019-03-24T04:21:16.681Z,4.00
2019-03-24T04:22:16.737Z,4.00
2019-03-24T04:23:16.646Z,4.00
2019-03-24T04:24:16.658Z,4.00
2019-03-24T04:25:16.643Z,4.00
2019-03-24T04:26:16.621Z,4.00
2019-03-24T04:27:16.615Z,4.00
2019-03-24T04:28:16.599Z,4.00
2019-03-24T04:29:16.602Z,4.00
2019-03-24T04:30:16.593Z,4.00
2019-03-24T04:31:16.592Z,4.00
2019-03-24T04:32:16.583Z,4.00
2019-03-24T04:33:16.607Z,4.00
2019-03-24T04:34:16.549Z,4.00
2019-03-24T04:35:16.541Z,4.00
2019-03-24T04:36:16.537Z,4.00
2019-03-24T04:37:16.542Z,4.00
2019-03-24T04:38:16.526Z,4.00
2019-03-24T04:39:16.562Z,4.00
2019-03-24T04:40:16.511Z,4.00
2019-03-24T04:41:16.485Z,4.00
2019-03-24T04:42:16.504Z,4.00
2019-03-24T04:43:16.494Z,4.00
2019-03-24T04:44:16.469Z,4.00
2019-03-24T04:45:16.445Z,4.00
2019-03-24T04:46:16.464Z,4.00
2019-03-24T04:47:16.956Z,4.00
2019-03-24T04:48:16.447Z,4.00
2019-03-24T04:49:16.431Z,4.00
2019-03-24T04:50:16.423Z,4.00
2019-03-24T04:51:16.428Z,4.00
2019-03-24T04:52:16.388Z,4.00
2019-03-24T04:53:16.385Z,4.00
2019-03-24T04:54:16.378Z,4.00
2019-03-24T04:55:16.395Z,4.00
2019-03-24T04:56:16.405Z,4.00
2019-03-24T04:57:16.381Z,4.00
2019-03-24T04:58:16.352Z,4.00
2019-03-24T04:59:16.366Z,4.00
2019-03-24T05:00:16.345Z,4.00
2019-03-24T05:01:16.344Z,4.00
2019-03-24T05:02:16.336Z,4.00
2019-03-24T05:03:16.319Z,4.00
2019-03-24T05:04:16.316Z,4.00
2019-03-24T05:05:16.297Z,4.00
2019-03-24T05:06:16.307Z,4.00
2019-03-24T05:07:16.286Z,4.00
2019-03-24T05:08:16.288Z,4.00
2019-03-24T05:09:16.261Z,4.00
2019-03-24T05:10:16.271Z,4.00
2019-03-24T05:11:16.296Z,4.00
2019-03-24T05:12:16.245Z,4.00
2019-03-24T05:13:16.285Z,4.00
2019-03-24T05:14:16.227Z,4.00
2019-03-24T05:15:16.236Z,4.00
2019-03-24T05:16:16.212Z,4.00
2019-03-24T05:17:23.049Z,4.00
2019-03-24T05:18:16.181Z,4.00
2019-03-24T05:19:16.182Z,4.00
2019-03-24T05:20:16.181Z,4.00
2019-03-24T05:21:16.156Z,4.00
2019-03-24T05:22:16.153Z,4.00
2019-03-24T05:23:16.134Z,4.00
2019-03-24T05:24:16.150Z,4.00
2019-03-24T05:25:16.118Z,4.00
2019-03-24T05:26:16.164Z,4.00
2019-03-24T05:27:16.118Z,4.00
2019-03-24T05:28:16.086Z,4.00
2019-03-24T05:29:16.103Z,4.00
2019-03-24T05:30:16.091Z,4.00
2019-03-24T05:31:16.087Z,4.00
2019-03-24T05:32:16.080Z,4.00
2019-03-24T05:33:16.070Z,4.00
2019-03-24T05:34:16.061Z,4.00
2019-03-24T05:35:16.048Z,4.00
2019-03-24T05:36:16.086Z,4.00
2019-03-24T05:37:16.027Z,4.00
2019-03-24T05:38:16.055Z,4.00
2019-03-24T05:39:16.018Z,4.00
2019-03-24T05:40:16.039Z,4.00
2019-03-24T05:41:16.212Z,4.00
2019-03-24T05:42:16.242Z,4.00
2019-03-24T05:43:19.013Z,4.00
2019-03-24T05:44:16.194Z,4.00
2019-03-24T05:45:15.978Z,4.00
2019-03-24T05:46:15.946Z,4.00
2019-03-24T05:47:15.939Z,4.00
2019-03-24T05:48:15.937Z,4.00
2019-03-24T05:49:15.925Z,4.00
2019-03-24T05:50:15.924Z,4.00
2019-03-24T05:51:15.890Z,4.00
2019-03-24T05:52:15.914Z,4.00
2019-03-24T05:53:15.908Z,4.00
2019-03-24T05:54:15.881Z,4.00
2019-03-24T05:55:15.868Z,4.00
2019-03-24T05:56:15.873Z,4.00
2019-03-24T05:57:15.872Z,4.00
2019-03-24T05:58:15.858Z,4.00
2019-03-24T05:59:15.847Z,4.00
2019-03-24T06:00:15.830Z,4.00
2019-03-24T06:01:15.835Z,4.00
2019-03-24T06:02:15.819Z,4.00
2019-03-24T06:03:15.826Z,4.00
2019-03-24T06:04:15.787Z,4.00
2019-03-24T06:05:15.836Z,4.00
2019-03-24T06:06:15.792Z,4.00
2019-03-24T06:07:15.780Z,4.00
2019-03-24T06:08:15.754Z,4.00
2019-03-24T06:09:15.902Z,4.00
2019-03-24T06:10:15.764Z,4.00
2019-03-24T06:11:15.727Z,4.00
2019-03-24T06:12:15.723Z,4.00
2019-03-24T06:13:15.766Z,4.00
2019-03-24T06:14:15.710Z,4.00
2019-03-24T06:15:15.703Z,4.00
2019-03-24T06:16:15.711Z,4.00
2019-03-24T06:17:15.690Z,4.00
2019-03-24T06:18:15.688Z,4.00
2019-03-24T06:19:15.676Z,4.00
2019-03-24T06:20:15.808Z,4.00
2019-03-24T06:21:15.694Z,4.00
2019-03-24T06:22:15.636Z,4.00
2019-03-24T06:23:15.631Z,4.00
2019-03-24T06:24:15.638Z,4.00
2019-03-24T06:25:15.608Z,4.00
2019-03-24T06:26:15.604Z,4.00
2019-03-24T06:27:15.604Z,4.00
2019-03-24T06:28:15.602Z,4.00
2019-03-24T06:29:15.636Z,4.00
2019-03-24T06:30:15.588Z,4.00
2019-03-24T06:31:15.578Z,4.00
2019-03-24T06:32:15.573Z,4.00
2019-03-24T06:33:15.557Z,4.00
2019-03-24T06:34:15.525Z,4.00
2019-03-24T06:35:15.545Z,4.00
2019-03-24T06:36:15.528Z,4.00
2019-03-24T06:37:15.528Z,4.00
2019-03-24T06:38:15.545Z,4.00
2019-03-24T06:39:15.512Z,4.00
2019-03-24T06:40:15.498Z,4.00
2019-03-24T06:41:15.527Z,4.00
2019-03-24T06:42:15.480Z,4.00
2019-03-24T06:43:15.514Z,4.00
2019-03-24T06:44:15.502Z,4.00
2019-03-24T06:45:15.483Z,4.00
2019-03-24T06:46:15.484Z,4.00
2019-03-24T06:47:15.463Z,4.00
2019-03-24T06:48:15.433Z,4.00
2019-03-24T06:49:15.411Z,4.00
2019-03-24T06:50:15.448Z,4.00
2019-03-24T06:51:15.431Z,4.00
2019-03-24T06:52:15.377Z,4.00
2019-03-24T06:53:15.392Z,4.00
2019-03-24T06:54:15.405Z,4.00
2019-03-24T06:55:15.369Z,4.00
2019-03-24T06:56:15.349Z,4.00
2019-03-24T06:57:16.923Z,4.00
2019-03-24T06:58:15.342Z,4.00
2019-03-24T06:59:15.326Z,4.00
2019-03-24T07:00:15.302Z,4.00
2019-03-24T07:01:15.313Z,4.00
2019-03-24T07:02:15.284Z,4.00
2019-03-24T07:03:15.272Z,4.00
2019-03-24T07:04:15.288Z,4.00
2019-03-24T07:05:15.283Z,4.00
2019-03-24T07:06:15.283Z,4.00
2019-03-24T07:07:15.262Z,4.00
2019-03-24T07:08:15.243Z,4.00
2019-03-24T07:09:15.388Z,4.00
2019-03-24T07:10:15.241Z,4.00
2019-03-24T07:11:15.259Z,4.00
2019-03-24T07:12:15.216Z,4.00
2019-03-24T07:13:15.185Z,4.00
2019-03-24T07:14:15.195Z,4.00
2019-03-24T07:15:15.192Z,4.00
2019-03-24T07:16:15.173Z,4.00
2019-03-24T07:17:15.180Z,4.00
2019-03-24T07:18:15.153Z,4.00
2019-03-24T07:19:15.135Z,4.00
2019-03-24T07:20:15.152Z,4.00
2019-03-24T07:21:15.115Z,4.00
2019-03-24T07:22:15.129Z,4.00
2019-03-24T07:23:15.121Z,4.00
2019-03-24T07:24:15.095Z,4.00
2019-03-24T07:25:15.082Z,4.00
2019-03-24T07:26:15.067Z,4.00
2019-03-24T07:27:15.079Z,4.00
2019-03-24T07:28:15.055Z,4.00
2019-03-24T07:29:15.061Z,4.00
2019-03-24T07:30:15.050Z,4.00
2019-03-24T07:31:15.055Z,4.00
2019-03-24T07:32:15.027Z,4.00
2019-03-24T07:33:15.033Z,4.00
2019-03-24T07:34:15.007Z,4.00
2019-03-24T07:35:15.021Z,4.00
2019-03-24T07:36:15.006Z,4.00
2019-03-24T07:37:14.997Z,4.00
2019-03-24T07:38:14.961Z,4.00
2019-03-24T07:39:14.965Z,4.00
2019-03-24T07:40:14.969Z,4.00
2019-03-24T07:41:14.963Z,4.00
2019-03-24T07:42:14.958Z,4.00
2019-03-24T07:43:14.922Z,4.00
2019-03-24T07:44:14.941Z,4.00
2019-03-24T07:45:14.916Z,4.00
2019-03-24T07:46:14.909Z,4.00
2019-03-24T07:47:14.898Z,4.00
2019-03-24T07:48:18.986Z,4.00
2019-03-24T07:49:14.929Z,4.00
2019-03-24T07:50:14.922Z,4.00
2019-03-24T07:51:14.853Z,4.00
2019-03-24T07:52:14.857Z,4.00
2019-03-24T07:53:14.849Z,4.00
2019-03-24T07:54:14.836Z,4.00
2019-03-24T07:55:14.826Z,4.00
2019-03-24T07:56:14.829Z,4.00
2019-03-24T07:57:14.813Z,4.00
2019-03-24T07:58:14.811Z,4.00
2019-03-24T07:59:14.802Z,4.00
2019-03-24T08:00:14.786Z,4.00
2019-03-24T08:01:14.780Z,4.00
2019-03-24T08:02:14.778Z,4.00
2019-03-24T08:03:14.752Z,4.00
2019-03-24T08:04:14.744Z,4.00
2019-03-24T08:05:14.748Z,4.00
2019-03-24T08:06:14.728Z,4.00
2019-03-24T08:07:14.733Z,4.00
2019-03-24T08:08:14.858Z,4.00
2019-03-24T08:09:14.722Z,4.00
2019-03-24T08:10:14.697Z,4.00
2019-03-24T08:11:14.742Z,4.00
2019-03-24T08:12:14.683Z,4.00
2019-03-24T08:13:14.669Z,4.00
2019-03-24T08:14:14.704Z,4.00
2019-03-24T08:15:14.646Z,4.00
2019-03-24T08:16:14.646Z,4.00
2019-03-24T08:17:14.629Z,4.00
2019-03-24T08:18:14.613Z,4.00
2019-03-24T08:19:14.628Z,4.00
2019-03-24T08:20:14.611Z,4.00
2019-03-24T08:21:14.602Z,4.00
2019-03-24T08:22:14.598Z,4.00
2019-03-24T08:23:14.629Z,4.00
2019-03-24T08:24:14.583Z,4.00
2019-03-24T08:25:14.570Z,4.00
2019-03-24T08:26:14.565Z,4.00
2019-03-24T08:27:14.589Z,4.00
2019-03-24T08:28:14.536Z,4.00
2019-03-24T08:29:14.522Z,4.00
2019-03-24T08:30:14.523Z,4.00
2019-03-24T08:31:14.510Z,4.00
2019-03-24T08:32:14.513Z,4.00
2019-03-24T08:33:14.497Z,4.00
2019-03-24T08:34:14.495Z,4.00
2019-03-24T08:35:14.500Z,4.00
2019-03-24T08:36:15.671Z,4.00
2019-03-24T08:37:14.453Z,4.00
2019-03-24T08:38:14.448Z,4.00
2019-03-24T08:39:14.456Z,4.00
2019-03-24T08:40:14.444Z,4.00
2019-03-24T08:41:14.417Z,4.00
2019-03-24T08:42:14.428Z,4.00
2019-03-24T08:43:14.415Z,4.00
2019-03-24T08:44:14.397Z,4.00
2019-03-24T08:45:14.382Z,4.00
2019-03-24T08:46:14.385Z,4.00
2019-03-24T08:47:14.388Z,4.00
2019-03-24T08:48:14.401Z,4.00
2019-03-24T08:49:14.360Z,4.00
2019-03-24T08:50:14.358Z,4.00
2019-03-24T08:51:14.380Z,4.00
2019-03-24T08:52:14.339Z,8.00
2019-03-24T08:53:14.302Z,8.00
2019-03-24T08:54:14.322Z,8.00
2019-03-24T08:55:14.347Z,8.00
2019-03-24T08:56:14.302Z,8.00
2019-03-24T08:57:14.285Z,4.00
2019-03-24T08:58:14.279Z,8.00
2019-03-24T08:59:14.264Z,8.00
2019-03-24T09:00:14.273Z,8.00
2019-03-24T09:01:14.236Z,8.00
2019-03-24T09:02:14.250Z,8.00
2019-03-24T09:03:14.227Z,12.00
2019-03-24T09:04:14.226Z,12.00
2019-03-24T09:05:14.220Z,12.00
2019-03-24T09:06:14.209Z,12.00
2019-03-24T09:07:14.233Z,12.00
2019-03-24T09:08:14.196Z,16.00
2019-03-24T09:09:14.170Z,16.00
2019-03-24T09:10:14.174Z,16.00
2019-03-24T09:11:14.153Z,12.00
2019-03-24T09:12:14.165Z,12.00
2019-03-24T09:13:14.123Z,12.00
2019-03-24T09:14:14.141Z,16.00
2019-03-24T09:15:14.135Z,16.00
2019-03-24T09:16:14.128Z,20.00
2019-03-24T09:17:14.100Z,24.00
2019-03-24T09:18:14.077Z,24.00
2019-03-24T09:19:14.076Z,28.00
2019-03-24T09:20:14.069Z,28.00
2019-03-24T09:21:14.064Z,32.00
2019-03-24T09:22:14.102Z,36.00
2019-03-24T09:23:14.033Z,36.00
2019-03-24T09:24:14.044Z,40.00
2019-03-24T09:25:14.020Z,44.00
2019-03-24T09:26:14.061Z,48.00
2019-03-24T09:27:14.018Z,48.00
2019-03-24T09:28:13.998Z,52.00
2019-03-24T09:29:13.996Z,56.00
2019-03-24T09:30:13.979Z,56.00
2019-03-24T09:31:13.960Z,64.00
2019-03-24T09:32:13.952Z,64.00
2019-03-24T09:33:13.973Z,64.00
2019-03-24T09:34:13.961Z,72.00
2019-03-24T09:35:13.960Z,72.00
2019-03-24T09:36:13.923Z,80.00
2019-03-24T09:37:13.962Z,80.00
2019-03-24T09:38:14.078Z,84.00
2019-03-24T09:39:13.910Z,84.00
2019-03-24T09:40:13.888Z,88.00
2019-03-24T09:41:13.887Z,92.00
2019-03-24T09:42:13.857Z,96.00
2019-03-24T09:43:13.883Z,100.00
2019-03-24T09:44:13.844Z,100.00
2019-03-24T09:45:13.853Z,100.00
2019-03-24T09:46:13.887Z,104.00
2019-03-24T09:47:13.876Z,104.00
2019-03-24T09:48:13.847Z,108.00
2019-03-24T09:49:13.812Z,112.00
2019-03-24T09:50:13.811Z,116.00
2019-03-24T09:51:13.778Z,116.00
2019-03-24T09:52:13.788Z,120.00
2019-03-24T09:53:13.779Z,120.00
2019-03-24T09:54:13.783Z,124.00
2019-03-24T09:55:13.764Z,124.00
2019-03-24T09:56:13.745Z,128.00
2019-03-24T09:57:13.756Z,132.00
2019-03-24T09:58:13.728Z,132.00
2019-03-24T09:59:13.716Z,136.00
2019-03-24T10:00:13.729Z,140.00
2019-03-24T10:01:13.717Z,140.00
2019-03-24T10:02:13.710Z,144.00
2019-03-24T10:03:13.701Z,144.00
2019-03-24T10:04:13.682Z,144.00
2019-03-24T10:05:13.677Z,148.00
2019-03-24T10:06:13.647Z,152.00
2019-03-24T10:07:13.653Z,156.00
2019-03-24T10:08:13.637Z,156.00
2019-03-24T10:09:13.630Z,160.00
2019-03-24T10:10:13.624Z,160.00
2019-03-24T10:11:13.631Z,160.00
2019-03-24T10:12:13.613Z,164.00
2019-03-24T10:13:13.596Z,164.00
2019-03-24T10:14:13.603Z,164.00
2019-03-24T10:15:13.622Z,168.00
2019-03-24T10:16:13.586Z,168.00
2019-03-24T10:17:13.555Z,172.00
2019-03-24T10:18:13.552Z,172.00
2019-03-24T10:19:14.431Z,172.00
2019-03-24T10:20:13.517Z,176.00
2019-03-24T10:21:13.535Z,180.00
2019-03-24T10:22:13.522Z,184.00
2019-03-24T10:23:13.525Z,184.00
2019-03-24T10:24:13.516Z,188.00
2019-03-24T10:25:13.497Z,188.00
2019-03-24T10:26:13.488Z,196.00
2019-03-24T10:27:13.474Z,196.00
2019-03-24T10:28:13.471Z,200.00
2019-03-24T10:29:13.468Z,204.00
2019-03-24T10:30:13.464Z,204.00
2019-03-24T10:31:13.453Z,204.00
2019-03-24T10:32:13.445Z,208.00
2019-03-24T10:33:13.429Z,212.00
2019-03-24T10:34:13.413Z,212.00
2019-03-24T10:35:13.406Z,212.00
2019-03-24T10:36:13.395Z,212.00
2019-03-24T10:37:13.402Z,220.00
2019-03-24T10:38:13.371Z,220.00
2019-03-24T10:39:13.384Z,220.00
2019-03-24T10:40:13.348Z,224.00
2019-03-24T10:41:13.350Z,224.00
2019-03-24T10:42:13.337Z,224.00
2019-03-24T10:43:13.345Z,224.00
2019-03-24T10:44:13.317Z,224.00
2019-03-24T10:45:13.331Z,228.00
2019-03-24T10:46:13.348Z,228.00
2019-03-24T10:47:13.289Z,228.00
2019-03-24T10:48:13.302Z,228.00
2019-03-24T10:49:23.942Z,228.00
2019-03-24T10:50:14.436Z,232.00
2019-03-24T10:51:13.313Z,232.00
2019-03-24T10:52:13.260Z,232.00
2019-03-24T10:53:13.236Z,232.00
2019-03-24T10:54:13.283Z,236.00
2019-03-24T10:55:13.246Z,236.00
2019-03-24T10:56:13.231Z,240.00
2019-03-24T10:57:13.209Z,236.00
2019-03-24T10:58:13.263Z,240.00
2019-03-24T10:59:13.213Z,240.00
2019-03-24T11:00:13.238Z,244.00
2019-03-24T11:01:13.190Z,240.00
2019-03-24T11:02:13.167Z,240.00
2019-03-24T11:03:13.175Z,244.00
2019-03-24T11:04:13.151Z,244.00
2019-03-24T11:05:13.197Z,244.00
2019-03-24T11:06:13.195Z,244.00
2019-03-24T11:07:13.141Z,248.00
2019-03-24T11:08:13.116Z,248.00
2019-03-24T11:09:13.115Z,248.00
2019-03-24T11:10:13.161Z,248.00
2019-03-24T11:11:13.090Z,252.00
2019-03-24T11:12:13.088Z,252.00
2019-03-24T11:13:13.081Z,252.00
2019-03-24T11:14:13.074Z,256.00
2019-03-24T11:15:13.113Z,260.00
2019-03-24T11:16:13.073Z,268.00
2019-03-24T11:17:13.043Z,272.00
2019-03-24T11:18:13.046Z,276.00
2019-03-24T11:19:13.034Z,280.00
2019-03-24T11:20:13.036Z,276.00
2019-03-24T11:21:13.038Z,268.00
2019-03-24T11:22:13.001Z,272.00
2019-03-24T11:23:12.987Z,272.00
2019-03-24T11:24:13.040Z,272.00
2019-03-24T11:25:12.981Z,280.00
2019-03-24T11:26:12.982Z,288.00
2019-03-24T11:27:12.959Z,296.00
2019-03-24T11:28:12.970Z,296.00
2019-03-24T11:29:12.998Z,296.00
2019-03-24T11:30:12.949Z,288.00
2019-03-24T11:31:12.948Z,284.00
2019-03-24T11:32:12.949Z,284.00
2019-03-24T11:33:12.927Z,288.00
2019-03-24T11:34:12.928Z,292.00
2019-03-24T11:35:12.907Z,292.00
2019-03-24T11:36:12.903Z,292.00
2019-03-24T11:37:12.888Z,300.00
2019-03-24T11:38:12.882Z,308.00
2019-03-24T11:39:12.871Z,312.00
2019-03-24T11:40:12.867Z,316.00
2019-03-24T11:41:12.867Z,324.00
2019-03-24T11:42:12.847Z,328.00
2019-03-24T11:43:12.847Z,336.00
2019-03-24T11:44:12.875Z,336.00
2019-03-24T11:45:12.816Z,344.00
2019-03-24T11:46:12.825Z,352.00
2019-03-24T11:47:12.812Z,340.00
2019-03-24T11:48:12.810Z,336.00
2019-03-24T11:49:12.784Z,332.00
2019-03-24T11:50:12.798Z,328.00
2019-03-24T11:51:12.794Z,332.00
2019-03-24T11:52:12.785Z,332.00
2019-03-24T11:53:12.765Z,336.00
2019-03-24T11:54:12.767Z,340.00
2019-03-24T11:55:12.743Z,340.00
2019-03-24T11:56:12.732Z,344.00
2019-03-24T11:57:12.775Z,356.00
2019-03-24T11:58:12.726Z,368.00
2019-03-24T11:59:12.714Z,380.00
2019-03-24T12:00:12.719Z,380.00
2019-03-24T12:01:12.701Z,384.00
2019-03-24T12:02:12.680Z,388.00
2019-03-24T12:03:12.699Z,396.00
2019-03-24T12:04:12.733Z,396.00
2019-03-24T12:05:12.675Z,400.00
2019-03-24T12:06:14.771Z,404.00
2019-03-24T12:07:12.635Z,416.00
2019-03-24T12:08:12.640Z,412.00
2019-03-24T12:09:12.634Z,428.00
2019-03-24T12:10:12.630Z,444.00
2019-03-24T12:11:12.625Z,448.00
2019-03-24T12:12:12.613Z,444.00
2019-03-24T12:13:12.625Z,440.00
2019-03-24T12:14:12.610Z,444.00
2019-03-24T12:15:12.600Z,452.00
2019-03-24T12:16:12.594Z,456.00
2019-03-24T12:17:12.626Z,468.00
2019-03-24T12:18:12.573Z,508.00
2019-03-24T12:19:12.554Z,588.00
2019-03-24T12:20:12.557Z,772.00
2019-03-24T12:21:12.548Z,908.00
2019-03-24T12:22:12.545Z,996.00
2019-03-24T12:23:12.535Z,1072.00
2019-03-24T12:24:12.543Z,1164.00
2019-03-24T12:25:12.531Z,1268.00
2019-03-24T12:26:12.518Z,1360.00
2019-03-24T12:27:12.523Z,1464.00
2019-03-24T12:28:12.506Z,1560.00
2019-03-24T12:29:12.511Z,1620.00
2019-03-24T12:30:12.495Z,1656.00
2019-03-24T12:31:12.484Z,1696.00
2019-03-24T12:32:12.497Z,1728.00
2019-03-24T12:33:12.471Z,1736.00
2019-03-24T12:34:12.579Z,1764.00
2019-03-24T12:35:12.472Z,1808.00
2019-03-24T12:36:12.440Z,1812.00
2019-03-24T12:37:12.462Z,1824.00
2019-03-24T12:38:12.457Z,1852.00
2019-03-24T12:39:12.465Z,1860.00
2019-03-24T12:40:12.431Z,1892.00
2019-03-24T12:41:12.427Z,1924.00
2019-03-24T12:42:12.436Z,1928.00
2019-03-24T12:43:19.306Z,1964.00
2019-03-24T12:44:12.420Z,1972.00
2019-03-24T12:45:12.427Z,1980.00
2019-03-24T12:46:12.410Z,1980.00
2019-03-24T12:47:12.409Z,1992.00
2019-03-24T12:48:12.417Z,2012.00
2019-03-24T12:49:12.395Z,2076.00
2019-03-24T12:50:12.390Z,2100.00
2019-03-24T12:51:12.401Z,2064.00
2019-03-24T12:52:13.218Z,2100.00
2019-03-24T12:53:12.382Z,2176.00
2019-03-24T12:54:12.358Z,2204.00
2019-03-24T12:55:12.374Z,2228.00
2019-03-24T12:56:12.365Z,2252.00
2019-03-24T12:57:12.339Z,2268.00
2019-03-24T12:58:12.351Z,2260.00
2019-03-24T12:59:12.357Z,2284.00
2019-03-24T13:00:12.352Z,2324.00
2019-03-24T13:01:12.339Z,2352.00
2019-03-24T13:02:12.324Z,2352.00